Luzern, Switzerland
Current Conditions -  °F | °C
As of 10:50 PM on Tuesday 21 Oct 2014 (Local Time) from LSME Reporting Station
Broken Clouds Broken Clouds  
Wind Chill: 50°   Ceiling: 5700
Heat Index: 50°   Visibility: 6mi
Dew Point: 43°   Wind: 3mph
Humidity: 76%   Direction: NA
Pressure: 30.06"   Gusts: NA
Location:  47.06°N, 8.3°E
Report Text: LSME 212050Z AUTO VRB03KT 9999NDV FEW032 BKN057 BKN081 10/06 Q1018 RMK WHT
Loading
Personal Weather Stations






























Interactive Weather Map
Tropical Storm Tracking
New forecast layout! Learn more

10-Day Weather Forecast

Advertisements
Track Severe Weather on mobile